Time;durP1;ratioP1;P1;durP2;ratioP2;P2;SDS_P1;SDS_P2;PMS_P1;PMS_P2;Temp;Humidity;BMP_temperature;BMP_pressure;BME280_temperature;BME280_humidity;BME280_pressure;Samples;Min_cycle;Max_cycle;Signal;HPM_P1;HPM_P2
2021/03/21 00:01:45;;;;;;;;;74.75;52.25;;;;;-3.35;81.84;100309.19;5012431;28;8836;-59
2021/03/21 00:04:16;;;;;;;;;76.50;49.50;;;;;-3.56;82.68;100309.97;5014207;28;8949;-59
2021/03/21 00:06:44;;;;;;;;;77.75;51.75;;;;;-3.43;82.22;100308.28;5030010;28;8828;-59
2021/03/21 00:09:13;;;;;;;;;68.25;50.00;;;;;-3.17;81.68;100300.53;5008093;28;8870;-59
2021/03/21 00:11:40;;;;;;;;;77.50;57.25;;;;;-2.71;79.61;100295.44;5014202;28;8847;-59
2021/03/21 00:14:08;;;;;;;;;72.50;53.00;;;;;-3.34;81.06;100296.97;5012669;28;8921;-59
2021/03/21 00:16:36;;;;;;;;;75.25;54.50;;;;;-3.23;80.79;100297.03;5013139;28;8896;-59
2021/03/21 00:19:06;;;;;;;;;72.75;51.25;;;;;-3.28;82.33;100297.00;5013488;28;8863;-58
2021/03/21 00:21:33;;;;;;;;;76.50;53.75;;;;;-2.82;80.72;100293.63;5012940;28;8839;-59
2021/03/21 00:24:00;;;;;;;;;84.25;59.50;;;;;-3.09;81.07;100304.06;5014070;28;8881;-59
2021/03/21 00:26:27;;;;;;;;;70.25;58.50;;;;;-3.31;82.38;100297.84;5013493;28;8924;-59
2021/03/21 00:28:54;;;;;;;;;77.75;54.00;;;;;-3.25;81.36;100302.25;5013316;28;8843;-57
2021/03/21 00:31:21;;;;;;;;;68.50;49.25;;;;;-3.30;81.84;100298.72;5013710;28;8851;-58
2021/03/21 00:33:48;;;;;;;;;75.25;52.75;;;;;-3.23;80.49;100289.13;5012619;28;8973;-58
2021/03/21 00:36:17;;;;;;;;;80.00;55.75;;;;;-3.32;81.68;100285.59;5007313;28;8835;-59
2021/03/21 00:38:49;;;;;;;;;77.25;48.00;;;;;-3.69;82.09;100283.66;5005052;28;8825;-58
2021/03/21 00:41:21;;;;;;;;;60.50;35.50;;;;;-3.94;82.74;100283.50;5012858;28;8865;-59
2021/03/21 00:43:50;;;;;;;;;79.25;54.50;;;;;-4.12;84.49;100278.13;5013482;28;8874;-58
2021/03/21 00:46:17;;;;;;;;;68.25;48.25;;;;;-3.84;83.75;100276.59;5013408;28;8854;-58
2021/03/21 00:48:46;;;;;;;;;36.75;27.75;;;;;-3.61;82.07;100271.44;5013733;28;8843;-59
2021/03/21 00:51:16;;;;;;;;;62.75;48.00;;;;;-3.87;81.97;100282.69;5011898;28;8831;-58
2021/03/21 00:53:44;;;;;;;;;42.00;32.50;;;;;-3.64;82.52;100271.44;5008917;28;8968;-58
2021/03/21 00:56:29;;;;;;;;;48.50;33.50;;;;;-3.42;81.90;100273.31;5012367;28;8847;-58
2021/03/21 00:58:58;;;;;;;;;39.50;29.50;;;;;-3.35;81.53;100275.06;5012819;28;8879;-59
2021/03/21 01:01:26;;;;;;;;;56.00;41.00;;;;;-3.69;81.84;100262.66;5012142;28;8839;-59
2021/03/21 01:03:54;;;;;;;;;44.00;29.75;;;;;-3.43;81.71;100260.16;5011393;28;8957;-59
2021/03/21 01:06:21;;;;;;;;;42.75;34.00;;;;;-3.90;82.11;100264.28;5013082;28;8847;-59
2021/03/21 01:08:54;;;;;;;;;38.25;32.25;;;;;-3.71;82.85;100259.16;5013019;28;8843;-59
2021/03/21 01:11:33;;;;;;;;;63.50;42.50;;;;;-3.68;83.00;100259.19;5012515;28;8874;-58
2021/03/21 01:14:01;;;;;;;;;65.50;48.00;;;;;-3.54;82.15;100258.38;5009270;28;8847;-58
2021/03/21 01:16:42;;;;;;;;;71.00;53.00;;;;;-3.77;83.84;100255.63;5012542;28;8851;-59
2021/03/21 01:19:22;;;;;;;;;69.75;46.75;;;;;-3.37;82.86;100255.84;5006148;28;8917;-59
2021/03/21 01:21:50;;;;;;;;;72.25;49.50;;;;;-3.59;82.07;100253.97;5011670;28;8878;-59
2021/03/21 01:24:21;;;;;;;;;76.25;53.50;;;;;-3.68;83.74;100248.69;5012563;28;8859;-59
2021/03/21 01:26:49;;;;;;;;;77.25;55.50;;;;;-3.21;82.32;100247.97;5012834;28;8973;-58
2021/03/21 01:29:17;;;;;;;;;79.50;51.75;;;;;-3.31;82.19;100244.47;5012106;28;8850;-58
2021/03/21 01:31:44;;;;;;;;;79.50;52.75;;;;;-3.47;82.21;100242.66;5012649;28;8843;-58
2021/03/21 01:34:13;;;;;;;;;65.50;48.00;;;;;-3.01;79.55;100246.31;5012830;28;8902;-59
2021/03/21 01:36:40;;;;;;;;;65.75;48.00;;;;;-3.59;80.40;100232.97;5012830;28;8859;-58
2021/03/21 01:39:22;;;;;;;;;47.75;36.50;;;;;-3.47;79.95;100232.16;5012767;28;8857;-58
2021/03/21 01:41:59;;;;;;;;;62.75;40.50;;;;;-3.41;78.35;100233.06;5010488;28;8882;-59
2021/03/21 01:44:26;;;;;;;;;58.25;40.50;;;;;-3.64;80.86;100232.94;5011576;28;8932;-59
2021/03/21 01:46:56;;;;;;;;;47.75;30.00;;;;;-3.58;79.46;100218.97;5012592;28;8831;-59
2021/03/21 01:49:38;;;;;;;;;49.75;40.25;;;;;-3.45;78.07;100231.31;5011817;28;8839;-59
2021/03/21 01:52:07;;;;;;;;;58.75;45.50;;;;;-3.67;78.75;100221.56;5022266;28;8847;-58
2021/03/21 01:54:36;;;;;;;;;49.00;37.25;;;;;-3.92;79.65;100218.84;5011609;28;8881;-59
2021/03/21 01:57:04;;;;;;;;;46.50;36.75;;;;;-3.84;80.60;100225.00;5010699;28;8974;-59
2021/03/21 01:59:35;;;;;;;;;50.00;40.00;;;;;-3.97;80.31;100212.69;4994595;28;8839;-58
2021/03/21 02:02:04;;;;;;;;;49.25;37.25;;;;;-4.03;81.67;100220.50;5012035;28;8831;-59
2021/03/21 02:04:32;;;;;;;;;47.25;39.00;;;;;-4.17;81.92;100216.91;5012070;28;8944;-59
2021/03/21 02:07:07;;;;;;;;;55.75;37.50;;;;;-3.78;80.44;100208.41;5011423;28;8982;-58
2021/03/21 02:09:47;;;;;;;;;44.75;34.25;;;;;-3.71;79.42;100211.91;5010073;28;8869;-60
2021/03/21 02:12:38;;;;;;;;;52.25;40.25;;;;;-3.79;78.42;100202.28;5006799;28;8831;-59
2021/03/21 02:15:33;;;;;;;;;50.75;40.25;;;;;-3.39;76.76;100205.06;5012013;28;8933;-59
2021/03/21 02:18:24;;;;;;;;;56.00;43.00;;;;;-3.66;76.41;100197.06;5011717;28;8946;-59
2021/03/21 02:21:32;;;;;;;;;53.25;44.00;;;;;-3.81;77.32;100201.41;5026595;28;8988;-59
2021/03/21 02:24:21;;;;;;;;;48.50;32.00;;;;;-3.62;76.99;100206.72;5003827;28;8969;-59
2021/03/21 02:27:30;;;;;;;;;63.75;44.00;;;;;-4.06;78.95;100200.38;5011797;28;8961;-58
2021/03/21 02:30:28;;;;;;;;;40.00;30.00;;;;;-3.62;76.83;100196.22;5010697;28;11043;-60
2021/03/21 02:33:29;;;;;;;;;56.00;38.25;;;;;-3.72;78.08;100190.06;5005698;28;8865;-58
2021/03/21 02:36:13;;;;;;;;;40.75;31.25;;;;;-4.30;78.79;100190.59;5008505;28;8831;-58
2021/03/21 02:38:57;;;;;;;;;49.25;39.00;;;;;-4.12;79.02;100179.38;5010638;28;8843;-59
2021/03/21 02:41:44;;;;;;;;;52.00;38.00;;;;;-4.17;80.54;100175.84;5009701;28;8835;-59
2021/03/21 02:44:22;;;;;;;;;52.75;41.25;;;;;-4.15;79.93;100175.88;5009996;28;9848;-59
2021/03/21 02:46:59;;;;;;;;;60.25;38.75;;;;;-3.95;79.83;100176.81;5008762;28;8948;-58
2021/03/21 02:49:41;;;;;;;;;58.50;41.75;;;;;-3.80;79.83;100176.91;5011165;28;8827;-59
2021/03/21 02:52:24;;;;;;;;;51.50;44.25;;;;;-3.72;79.09;100174.31;5024997;28;8851;-58
2021/03/21 02:55:02;;;;;;;;;62.75;44.25;;;;;-3.75;77.66;100164.69;5009697;28;8942;-59
2021/03/21 02:57:40;;;;;;;;;40.50;30.50;;;;;-3.97;78.86;100166.34;5003867;28;8909;-59
2021/03/21 03:00:11;;;;;;;;;49.00;33.50;;;;;-3.76;78.13;100156.81;5009909;28;8882;-58
2021/03/21 03:02:49;;;;;;;;;49.50;32.25;;;;;-3.59;77.00;100159.50;5010933;28;8843;-58
2021/03/21 03:05:33;;;;;;;;;39.75;30.50;;;;;-3.73;77.70;100155.97;5009262;28;8866;-58
2021/03/21 03:08:08;;;;;;;;;42.50;30.50;;;;;-3.78;77.61;100153.31;5007590;28;8974;-58
2021/03/21 03:10:48;;;;;;;;;61.25;35.50;;;;;-3.84;76.88;100154.16;5009377;28;8847;-58
2021/03/21 03:13:22;;;;;;;;;42.75;35.00;;;;;-3.95;76.53;100149.72;5010815;28;8937;-59
2021/03/21 03:15:54;;;;;;;;;56.50;34.50;;;;;-4.14;77.10;100149.63;5009624;28;8855;-59
2021/03/21 03:19:29;;;;;;;;;36.50;30.50;;;;;-4.03;76.96;100152.31;5010194;28;8867;-58
2021/03/21 03:22:27;;;;;;;;;43.25;32.75;;;;;-3.97;77.47;100150.59;5004730;28;8862;-58
2021/03/21 03:25:04;;;;;;;;;48.75;30.50;;;;;-3.80;75.81;100155.03;5003393;28;8862;-59
2021/03/21 03:27:56;;;;;;;;;52.50;38.50;;;;;-3.99;77.56;100146.22;5014035;28;8946;-59
2021/03/21 03:30:31;;;;;;;;;44.50;33.25;;;;;-3.89;76.93;100157.66;5013442;28;8867;-59
2021/03/21 03:32:58;;;;;;;;;47.00;39.25;;;;;-3.68;77.32;100148.97;4996950;28;8861;-59
2021/03/21 03:35:26;;;;;;;;;41.00;31.00;;;;;-3.58;74.52;100140.25;5014066;28;9639;-58
2021/03/21 03:37:53;;;;;;;;;40.00;31.25;;;;;-4.27;76.12;100132.97;5013756;28;8839;-58
2021/03/21 03:40:22;;;;;;;;;55.25;33.00;;;;;-4.31;76.38;100132.97;5013711;28;8953;-59
2021/03/21 03:43:07;;;;;;;;;38.50;32.50;;;;;-4.36;77.58;100132.91;5013233;28;8835;-58
2021/03/21 03:45:44;;;;;;;;;42.50;29.25;;;;;-4.83;77.89;100129.97;5006223;28;8839;-58
2021/03/21 03:48:35;;;;;;;;;48.75;29.75;;;;;-4.76;78.34;100132.66;5014966;28;8837;-57
2021/03/21 03:51:13;;;;;;;;;45.50;31.00;;;;;-4.64;78.29;100121.38;5013799;28;8866;-58
2021/03/21 03:54:07;;;;;;;;;49.25;31.00;;;;;-4.64;78.11;100118.75;5011908;28;8858;-58
2021/03/21 03:56:47;;;;;;;;;42.25;35.00;;;;;-4.86;78.65;100112.50;5014578;28;8839;-58
2021/03/21 03:59:55;;;;;;;;;49.00;33.75;;;;;-4.90;79.95;100113.31;5014289;28;8858;-58
2021/03/21 04:02:43;;;;;;;;;49.00;36.00;;;;;-4.26;76.66;100102.41;5009182;28;8856;-58
2021/03/21 04:05:45;;;;;;;;;37.75;31.50;;;;;-4.43;76.34;100105.78;5014168;28;8847;-58
2021/03/21 04:08:34;;;;;;;;;56.50;41.00;;;;;-4.43;77.27;100097.94;5008458;28;8950;-58
2021/03/21 04:11:36;;;;;;;;;52.50;39.00;;;;;-4.25;76.83;100093.66;5012191;28;8882;-59
2021/03/21 04:14:10;;;;;;;;;45.75;35.50;;;;;-4.20;77.26;100098.06;5025232;28;8847;-58
2021/03/21 04:16:52;;;;;;;;;39.00;27.50;;;;;-4.12;76.15;100094.59;5012899;28;8863;-59
2021/03/21 04:19:24;;;;;;;;;39.75;29.50;;;;;-3.96;75.23;100096.41;5012560;28;8951;-58
2021/03/21 04:22:04;;;;;;;;;47.25;34.50;;;;;-3.95;75.69;100090.28;5012483;28;8835;-59
2021/03/21 04:24:41;;;;;;;;;52.00;36.50;;;;;-3.75;73.79;100087.72;5012610;28;8889;-59
2021/03/21 04:27:17;;;;;;;;;48.50;32.50;;;;;-3.89;74.40;100094.69;5012952;28;8929;-58
2021/03/21 04:30:52;;;;;;;;;51.75;43.00;;;;;-4.27;75.56;100091.03;5013664;28;8847;-58
2021/03/21 04:33:33;;;;;;;;;48.25;39.50;;;;;-4.28;76.64;100084.03;5010548;28;8855;-58
2021/03/21 04:36:08;;;;;;;;;47.25;35.75;;;;;-4.16;76.03;100082.34;5022794;28;8855;-58
2021/03/21 04:38:45;;;;;;;;;42.75;21.75;;;;;-4.27;76.16;100079.66;5012569;28;8831;-59
2021/03/21 04:41:24;;;;;;;;;56.25;44.25;;;;;-4.17;75.58;100073.59;5013650;28;8835;-58
2021/03/21 04:44:13;;;;;;;;;65.00;44.00;;;;;-4.37;75.17;100076.16;5013299;28;9525;-58
2021/03/21 04:47:17;;;;;;;;;49.25;38.50;;;;;-4.20;74.42;100061.34;4996046;28;8855;-58
2021/03/21 04:49:45;;;;;;;;;57.50;43.25;;;;;-4.17;75.32;100064.88;5008292;28;8854;-58
2021/03/21 04:52:38;;;;;;;;;50.75;38.25;;;;;-3.93;74.23;100064.94;5011969;28;8859;-57
2021/03/21 04:55:14;;;;;;;;;57.50;39.50;;;;;-3.94;73.20;100068.44;5010110;28;8870;-58
2021/03/21 04:57:47;;;;;;;;;48.50;33.25;;;;;-3.82;72.48;100063.25;5011374;28;8861;-58
2021/03/21 05:00:45;;;;;;;;;47.50;31.25;;;;;-3.85;72.82;100067.59;5008898;28;8863;-58
2021/03/21 05:03:34;;;;;;;;;57.25;39.25;;;;;-3.63;71.35;100065.91;5006264;28;8929;-59
2021/03/21 05:06:12;;;;;;;;;51.50;42.00;;;;;-3.68;72.51;100065.91;5012328;28;8846;-58
2021/03/21 05:08:53;;;;;;;;;43.50;34.50;;;;;-3.67;70.98;100061.50;5013105;28;8835;-58
2021/03/21 05:11:20;;;;;;;;;36.25;27.50;;;;;-3.74;71.70;100063.25;5012187;28;8850;-58
2021/03/21 05:13:59;;;;;;;;;38.75;28.50;;;;;-3.53;71.02;100065.94;5012740;28;8881;-58
2021/03/21 05:17:01;;;;;;;;;43.25;33.00;;;;;-3.33;71.57;100068.56;5007330;28;8847;-58
2021/03/21 05:20:03;;;;;;;;;42.00;32.00;;;;;-3.00;68.98;100066.84;5003324;28;8847;-58
2021/03/21 05:22:57;;;;;;;;;35.00;29.50;;;;;-2.66;69.84;100072.03;4992437;28;8981;-58
2021/03/21 05:25:42;;;;;;;;;58.00;47.50;;;;;-3.27;69.70;100077.31;5008106;28;8869;-58
2021/03/21 05:28:21;;;;;;;;;98.25;65.50;;;;;-3.28;70.51;100075.56;5021338;28;8890;-58
2021/03/21 05:31:00;;;;;;;;;76.00;52.00;;;;;-2.34;68.08;100084.22;5012520;28;8875;-58
2021/03/21 05:33:28;;;;;;;;;51.00;39.25;;;;;-2.88;68.81;100082.56;5011124;28;8854;-58
2021/03/21 05:36:00;;;;;;;;;46.50;19.00;;;;;-2.86;68.54;100079.94;5010993;28;8915;-59
2021/03/21 05:38:45;;;;;;;;;66.75;48.75;;;;;-2.85;67.99;100075.56;5011424;28;8849;-59
2021/03/21 05:41:55;;;;;;;;;73.25;50.25;;;;;-2.72;69.24;100085.19;5006269;28;8878;-58
2021/03/21 05:45:12;;;;;;;;;76.00;53.50;;;;;-2.54;67.62;100077.25;5007306;28;8897;-58
2021/03/21 05:48:11;;;;;;;;;64.00;42.00;;;;;-1.97;66.13;100079.72;5009589;28;8859;-58
2021/03/21 05:51:20;;;;;;;;;52.00;42.00;;;;;-2.36;66.36;100084.25;4978958;28;8847;-59
2021/03/21 05:54:07;;;;;;;;;44.00;28.00;;;;;-2.67;67.12;100086.06;4989212;28;8874;-58
2021/03/21 05:57:13;;;;;;;;;47.75;32.50;;;;;-2.45;67.04;100087.78;5011701;28;8881;-59
2021/03/21 06:00:00;;;;;;;;;60.50;35.75;;;;;-2.60;68.90;100087.81;5011984;28;8846;-58
2021/03/21 06:02:36;;;;;;;;;48.25;37.25;;;;;-1.22;63.93;100081.91;5008147;28;8877;-58
2021/03/21 06:05:11;;;;;;;;;48.25;40.50;;;;;-0.34;61.41;100073.19;5011336;28;8843;-58
2021/03/21 06:08:15;;;;;;;;;50.50;33.75;;;;;1.10;56.42;100077.34;5007518;28;8833;-57
2021/03/21 06:11:03;;;;;;;;;55.00;41.50;;;;;2.39;52.50;100066.03;5008585;28;8836;-59
2021/03/21 06:13:45;;;;;;;;;50.00;39.50;;;;;3.81;49.00;100076.66;5010341;28;8836;-58
2021/03/21 06:16:52;;;;;;;;;58.25;46.50;;;;;2.88;51.32;100069.34;5011952;28;8937;-58
2021/03/21 06:19:53;;;;;;;;;61.50;45.25;;;;;2.88;49.77;100072.00;5008581;28;8823;-59
2021/03/21 06:22:30;;;;;;;;;50.00;39.00;;;;;2.82;50.52;100076.53;4998686;28;8835;-59
2021/03/21 06:25:08;;;;;;;;;48.25;40.75;;;;;4.99;44.97;100074.00;5027341;28;8824;-60
2021/03/21 06:28:31;;;;;;;;;46.50;37.25;;;;;5.09;43.40;100066.59;5007118;28;8839;-58
2021/03/21 06:31:44;;;;;;;;;39.00;33.50;;;;;0.99;53.32;100067.84;5008982;28;8951;-58
2021/03/21 06:34:34;;;;;;;;;47.75;35.25;;;;;-0.15;57.82;100068.59;5025733;28;8960;-60
2021/03/21 06:37:23;;;;;;;;;49.00;33.50;;;;;-0.81;57.52;100072.78;5027790;28;8869;-59
2021/03/21 06:39:53;;;;;;;;;47.00;32.50;;;;;-0.78;58.05;100062.22;5006357;28;8859;-59
2021/03/21 06:42:26;;;;;;;;;41.75;35.25;;;;;-0.50;59.59;100069.81;5012643;28;8856;-59
2021/03/21 06:45:45;;;;;;;;;31.25;25.50;;;;;-0.69;59.40;100066.50;5013382;28;8819;-59
2021/03/21 06:48:42;;;;;;;;;40.00;26.50;;;;;-0.13;57.47;100062.41;5007856;28;8863;-58
2021/03/21 06:51:51;;;;;;;;;43.75;33.75;;;;;-0.33;57.54;100057.34;5012726;28;8940;-59
2021/03/21 06:54:35;;;;;;;;;40.75;30.50;;;;;-0.53;55.55;100051.41;5009616;28;8873;-59
2021/03/21 06:57:43;;;;;;;;;38.75;27.25;;;;;-0.22;54.46;100055.44;5012394;28;8867;-60
2021/03/21 07:00:53;;;;;;;;;27.00;21.50;;;;;0.19;54.15;100047.91;4998034;28;8929;-60
2021/03/21 07:04:04;;;;;;;;;28.50;18.00;;;;;0.55;52.64;100062.34;5011967;28;8827;-60
2021/03/21 07:07:17;;;;;;;;;23.50;21.00;;;;;0.17;50.22;100055.84;5012475;28;8865;-59
2021/03/21 07:10:02;;;;;;;;;27.00;18.00;;;;;0.78;49.29;100058.50;5012006;28;8843;-58
2021/03/21 07:13:33;;;;;;;;;25.00;17.25;;;;;0.67;49.56;100049.88;5012272;28;8880;-60
2021/03/21 07:16:25;;;;;;;;;24.50;21.75;;;;;1.30;46.54;100047.03;5008130;28;8849;-61
2021/03/21 07:19:42;;;;;;;;;38.50;29.75;;;;;7.26;36.50;100038.00;5008036;28;8839;-59
2021/03/21 07:23:07;;;;;;;;;26.33;23.33;;;;;9.19;31.10;100042.50;5026359;28;8854;-59
2021/03/21 07:26:04;;;;;;;;;32.67;30.33;;;;;3.56;39.92;100041.97;5005645;28;8863;-60
2021/03/21 07:28:53;;;;;;;;;18.00;17.25;;;;;1.57;44.32;100037.72;5004785;28;8871;-60
2021/03/21 07:32:00;;;;;;;;;31.50;27.00;;;;;1.47;45.74;100031.72;5012556;28;8843;-60
2021/03/21 07:35:11;;;;;;;;;24.25;19.00;;;;;1.66;45.42;100028.72;5012728;28;8835;-60
2021/03/21 07:38:04;;;;;;;;;22.75;14.50;;;;;1.99;44.29;100032.47;5012556;28;8871;-60
2021/03/21 07:41:14;;;;;;;;;20.00;15.75;;;;;2.04;43.68;100035.03;5011144;28;8870;-60
2021/03/21 07:44:14;;;;;;;;;20.00;15.50;;;;;2.23;43.83;100028.41;5002039;28;8874;-60
2021/03/21 07:46:59;;;;;;;;;23.25;15.00;;;;;1.96;42.11;100017.50;5012536;28;8867;-59
2021/03/21 07:49:58;;;;;;;;;28.75;21.25;;;;;1.99;42.44;100016.56;5008486;28;8843;-59
2021/03/21 07:52:54;;;;;;;;;17.50;11.00;;;;;2.56;44.07;100012.66;5009999;28;8839;-59
2021/03/21 07:55:36;;;;;;;;;10.25;9.50;;;;;2.25;39.85;100018.66;5011578;28;8863;-59
2021/03/21 07:58:28;;;;;;;;;43.75;37.25;;;;;2.07;40.66;100013.75;5012468;28;8855;-59
2021/03/21 08:00:57;;;;;;;;;14.25;14.00;;;;;3.01;41.20;100012.44;5012053;28;8861;-59
2021/03/21 08:03:39;;;;;;;;;17.00;13.00;;;;;2.12;39.91;100019.84;5010988;28;8823;-58
2021/03/21 08:06:16;;;;;;;;;13.75;11.75;;;;;2.57;40.79;100007.31;5010876;28;8839;-58
2021/03/21 08:08:50;;;;;;;;;28.75;20.00;;;;;2.09;40.18;99998.72;5006434;28;8831;-59
2021/03/21 08:11:26;;;;;;;;;22.50;15.75;;;;;3.03;40.52;99992.06;5004893;28;8889;-59
2021/03/21 08:14:12;;;;;;;;;18.50;13.50;;;;;2.99;39.11;100001.00;5015084;28;8916;-59
2021/03/21 08:16:48;;;;;;;;;23.75;21.00;;;;;3.22;39.40;99995.09;5015351;28;8853;-59
2021/03/21 08:19:25;;;;;;;;;22.00;11.25;;;;;2.94;38.22;99987.84;5014371;28;8858;-59
2021/03/21 08:21:55;;;;;;;;;13.25;11.75;;;;;2.84;39.40;99981.94;5014572;28;8863;-59
2021/03/21 08:24:31;;;;;;;;;12.00;10.00;;;;;2.85;37.76;99983.66;5015152;28;8877;-59
2021/03/21 08:27:04;;;;;;;;;13.25;11.00;;;;;3.05;38.40;99985.81;5014605;28;8839;-60
2021/03/21 08:29:58;;;;;;;;;17.00;14.00;;;;;2.99;38.43;99975.34;5006668;28;8859;-58
2021/03/21 08:32:29;;;;;;;;;19.25;12.50;;;;;2.57;36.75;99972.00;5007632;28;8838;-58
2021/03/21 08:35:13;;;;;;;;;34.75;28.75;;;;;2.81;37.40;99967.84;4998679;28;8938;-59
2021/03/21 08:37:45;;;;;;;;;24.50;19.50;;;;;2.95;38.98;99972.78;5007901;28;8839;-59
2021/03/21 08:40:34;;;;;;;;;16.00;15.00;;;;;2.83;38.06;99955.44;5015130;28;8886;-60
2021/03/21 08:43:21;;;;;;;;;13.75;13.75;;;;;2.85;38.47;99961.56;5029208;28;8871;-60
2021/03/21 08:45:57;;;;;;;;;21.75;16.75;;;;;3.22;38.75;99961.47;5015392;28;8861;-60
2021/03/21 08:48:34;;;;;;;;;16.75;14.00;;;;;3.18;37.51;99959.78;5014568;28;8866;-59
2021/03/21 08:51:04;;;;;;;;;20.50;14.00;;;;;3.00;38.41;99949.69;5022210;28;8898;-60
2021/03/21 08:53:52;;;;;;;;;12.00;9.25;;;;;3.84;37.05;99959.72;5014897;28;8844;-59
2021/03/21 08:56:35;;;;;;;;;19.00;12.00;;;;;4.29;38.06;99935.31;5014152;28;8867;-60
2021/03/21 08:59:33;;;;;;;;;17.25;12.00;;;;;4.19;36.98;99934.75;5011607;28;8859;-60
2021/03/21 09:02:22;;;;;;;;;12.25;11.75;;;;;4.24;35.50;99931.94;5013258;28;8831;-60
2021/03/21 09:05:09;;;;;;;;;16.00;11.50;;;;;3.88;36.37;99937.47;5013708;28;8839;-61
2021/03/21 09:07:39;;;;;;;;;15.67;8.33;;;;;4.25;36.04;99934.53;4996602;28;8843;-61
2021/03/21 09:10:12;;;;;;;;;15.67;9.67;;;;;4.07;35.86;99930.66;5013068;28;8827;-60
2021/03/21 09:12:49;;;;;;;;;15.00;11.00;;;;;3.60;34.01;99925.00;5012491;28;8858;-60
2021/03/21 09:15:38;;;;;;;;;16.67;14.00;;;;;3.86;34.46;99912.75;5006936;28;8847;-60
2021/03/21 09:18:30;;;;;;;;;16.33;15.00;;;;;4.27;37.03;99905.28;5007100;28;8847;-60
2021/03/21 09:21:15;;;;;;;;;16.33;12.00;;;;;4.81;36.30;99901.69;5014142;28;9703;-60
2021/03/21 09:23:59;;;;;;;;;15.00;12.00;;;;;4.70;35.83;99895.88;5014007;28;9586;-61
2021/03/21 09:26:38;;;;;;;;;12.33;8.67;;;;;4.71;33.51;99884.28;5008605;28;8843;-59
2021/03/21 09:29:17;;;;;;;;;12.00;10.33;;;;;4.40;33.70;99888.88;5012899;28;8953;-60
2021/03/21 09:31:46;;;;;;;;;12.00;11.00;;;;;4.77;34.73;99884.09;5012501;28;8839;-59
2021/03/21 09:35:02;;;;;;;;;13.67;11.00;;;;;4.43;33.88;99887.03;5012023;28;9562;-59
2021/03/21 09:37:36;;;;;;;;;15.33;12.00;;;;;4.70;34.13;99877.25;4991579;28;8847;-60
2021/03/21 09:40:22;;;;;;;;;18.00;12.67;;;;;4.66;33.58;99875.59;5012792;28;8819;-60
2021/03/21 09:42:51;;;;;;;;;15.67;12.00;;;;;5.04;34.00;99867.16;5012525;28;8835;-60
2021/03/21 09:45:19;;;;;;;;;21.33;13.67;;;;;4.99;34.41;99862.91;5014218;28;8873;-60
2021/03/21 09:48:00;;;;;;;;;17.00;12.00;;;;;4.24;33.88;99862.81;5013417;28;8843;-60
2021/03/21 09:50:49;;;;;;;;;16.33;14.33;;;;;4.61;34.35;99860.69;5009751;28;8868;-60
2021/03/21 09:53:51;;;;;;;;;17.33;12.00;;;;;4.66;34.49;99872.94;5013223;28;8893;-60
2021/03/21 09:56:36;;;;;;;;;26.00;13.33;;;;;4.22;33.46;99860.25;5013589;28;9786;-60
2021/03/21 09:59:06;;;;;;;;;16.67;15.33;;;;;4.69;35.13;99855.09;5013330;28;8823;-59
2021/03/21 10:01:55;;;;;;;;;16.00;12.00;;;;;5.02;35.04;99866.31;5013195;28;8835;-60
2021/03/21 10:04:48;;;;;;;;;22.00;13.67;;;;;4.95;35.76;99845.31;4998177;28;8839;-59
2021/03/21 10:07:40;;;;;;;;;14.33;13.67;;;;;5.08;34.36;99843.94;5012256;28;8866;-59
2021/03/21 10:10:20;;;;;;;;;23.67;15.33;;;;;4.93;34.08;99847.19;5012003;28;8905;-59
2021/03/21 10:12:48;;;;;;;;;11.00;11.00;;;;;4.73;34.46;99845.22;5022944;28;8827;-61
2021/03/21 10:15:21;;;;;;;;;13.00;13.00;;;;;5.15;33.26;99840.16;5013005;28;8903;-59
2021/03/21 10:17:51;;;;;;;;;19.33;16.00;;;;;5.44;34.78;99833.72;5012309;28;8839;-59
2021/03/21 10:20:22;;;;;;;;;15.67;12.00;;;;;5.42;34.57;99824.91;5011907;28;8832;-60
2021/03/21 10:30:33;;;;;;;;;13.00;11.00;;;;;5.02;32.72;99813.09;5006098;28;8831;-59
2021/03/21 10:33:00;;;;;;;;;13.00;11.00;;;;;4.98;32.94;99808.84;5013523;28;8900;-59
2021/03/21 10:35:30;;;;;;;;;11.67;9.67;;;;;4.78;31.89;99798.91;5010189;28;8901;-59
2021/03/21 10:38:10;;;;;;;;;19.67;14.33;;;;;5.23;33.04;99797.28;5012917;28;8851;-59
2021/03/21 10:40:36;;;;;;;;;18.67;14.67;;;;;4.61;31.63;99802.19;5011255;28;8885;-59
2021/03/21 10:43:21;;;;;;;;;11.67;11.00;;;;;5.08;32.92;99790.72;5012752;28;8867;-59
2021/03/21 10:45:54;;;;;;;;;22.33;16.00;;;;;5.16;33.35;99795.75;5012907;28;8831;-60
2021/03/21 10:48:24;;;;;;;;;12.67;12.33;;;;;4.93;32.86;99781.53;5012035;28;8910;-60
2021/03/21 10:51:04;;;;;;;;;11.33;5.67;;;;;5.70;33.04;99779.44;4999592;28;8872;-60
2021/03/21 10:54:05;;;;;;;;;19.00;14.33;;;;;5.62;32.88;99780.69;5011591;28;8846;-60
2021/03/21 10:56:32;;;;;;;;;33.00;21.33;;;;;5.09;32.01;99773.00;4987034;28;8885;-60
2021/03/21 10:59:25;;;;;;;;;24.00;13.67;;;;;5.31;33.23;99768.56;5008527;28;8881;-60
2021/03/21 11:02:24;;;;;;;;;5.00;0.00;;;;;5.53;33.07;99767.72;5009208;28;8881;-59
2021/03/21 11:05:07;;;;;;;;;19.67;16.00;;;;;5.78;33.71;99768.47;5007064;28;8814;-59
2021/03/21 11:07:34;;;;;;;;;19.33;16.00;;;;;5.64;33.22;99762.84;5011004;28;8835;-58
2021/03/21 11:10:07;;;;;;;;;22.33;20.00;;;;;6.10;32.86;99756.50;5004656;28;8835;-59
2021/03/21 11:12:42;;;;;;;;;25.00;20.00;;;;;6.08;33.33;99754.84;5010927;28;8843;-58
2021/03/21 11:15:37;;;;;;;;;14.67;12.33;;;;;5.48;32.27;99752.81;5012788;28;8835;-59
2021/03/21 11:18:21;;;;;;;;;17.67;16.33;;;;;5.23;33.07;99738.72;5004648;28;8908;-60
2021/03/21 11:20:48;;;;;;;;;17.00;13.00;;;;;5.78;33.23;99730.31;5009199;28;8933;-59
2021/03/21 11:23:24;;;;;;;;;14.00;12.00;;;;;5.65;31.58;99719.28;5011945;28;8845;-58
2021/03/21 11:25:51;;;;;;;;;20.00;16.00;;;;;5.70;31.82;99718.16;5011862;28;8831;-59
2021/03/21 11:28:36;;;;;;;;;16.00;15.67;;;;;6.01;32.43;99708.09;5009653;28;8853;-59
2021/03/21 11:31:08;;;;;;;;;12.33;9.00;;;;;6.01;30.77;99694.75;5009379;28;9005;-59
2021/03/21 11:33:43;;;;;;;;;16.33;12.67;;;;;6.15;31.47;99697.69;5010975;28;8835;-59
2021/03/21 11:36:32;;;;;;;;;16.67;14.67;;;;;5.90;30.06;99677.38;5007560;28;8925;-59
2021/03/21 11:43:21;;;;;;;;;12.33;8.00;;;;;5.98;32.40;99679.75;5007342;28;8843;-59
2021/03/21 11:45:49;;;;;;;;;13.67;10.00;;;;;5.59;29.99;99672.47;5010118;28;8847;-59
2021/03/21 11:48:31;;;;;;;;;14.00;13.00;;;;;6.36;32.50;99674.53;4979596;28;8839;-58
2021/03/21 11:51:00;;;;;;;;;13.67;12.67;;;;;6.38;31.25;99673.53;5013240;28;8831;-59
2021/03/21 11:53:36;;;;;;;;;18.00;10.67;;;;;6.14;32.50;99661.31;4996972;28;8855;-59
2021/03/21 11:56:45;;;;;;;;;11.67;9.00;;;;;6.15;30.96;99655.88;4997178;28;8855;-59
2021/03/21 11:59:19;;;;;;;;;15.33;9.00;;;;;6.00;30.32;99663.69;4996897;28;8847;-59
2021/03/21 12:01:51;;;;;;;;;14.00;10.67;;;;;5.56;30.86;99643.31;5012474;28;8839;-59
2021/03/21 12:04:39;;;;;;;;;14.33;13.00;;;;;6.01;31.04;99638.78;4996209;28;8922;-59
2021/03/21 12:07:25;;;;;;;;;9.00;9.00;;;;;6.14;31.07;99635.50;4996617;28;8843;-58
2021/03/21 12:09:53;;;;;;;;;20.33;13.67;;;;;5.92;30.58;99622.25;5011938;28;8866;-59
2021/03/21 12:12:41;;;;;;;;;12.33;10.67;;;;;6.40;30.35;99638.81;4997302;28;8839;-58
2021/03/21 12:15:24;;;;;;;;;17.67;10.00;;;;;6.44;30.76;99626.19;5013654;28;8815;-58
2021/03/21 12:18:16;;;;;;;;;34.33;28.00;;;;;5.77;30.54;99620.22;5014188;28;8949;-59
2021/03/21 12:21:11;;;;;;;;;23.00;20.00;;;;;5.88;30.85;99614.44;5011012;28;8847;-58
2021/03/21 12:23:55;;;;;;;;;14.33;14.33;;;;;6.06;29.78;99604.81;5015128;28;8839;-58
2021/03/21 12:26:31;;;;;;;;;14.67;12.67;;;;;6.24;29.96;99595.09;5015051;28;8869;-58
2021/03/21 12:29:11;;;;;;;;;17.00;12.00;;;;;6.17;30.58;99583.88;5014918;28;8913;-59
2021/03/21 12:31:40;;;;;;;;;8.33;8.33;;;;;5.85;30.63;99583.47;5005585;28;8846;-58
2021/03/21 12:34:32;;;;;;;;;21.00;17.67;;;;;6.44;31.37;99570.19;4998228;28;8833;-58
2021/03/21 12:37:14;;;;;;;;;18.33;10.00;;;;;6.63;30.27;99570.19;5011231;28;8867;-58
2021/03/21 12:39:52;;;;;;;;;17.67;10.00;;;;;6.07;29.82;99566.56;5007527;28;8831;-58
2021/03/21 12:42:37;;;;;;;;;13.00;11.33;;;;;6.07;30.41;99554.09;5012572;28;8982;-58
2021/03/21 12:45:19;;;;;;;;;14.67;12.00;;;;;6.21;29.34;99552.59;5013630;28;8843;-58
2021/03/21 12:48:07;;;;;;;;;14.67;13.00;;;;;6.53;29.91;99543.97;5010549;28;8824;-58